Ana Sayfa
METAR-TAF:

METAR-TAF

Havaalanları :

Troy, Michigan, Amerika Birleşik Devletleri

Enlem: 42-32-35N, Boylam: 083-10-40W, yükseklik: 222 m

Güncel hava durumu gözlemi

Rapor saat 23:16 UTC de 18 dakika önce yapıldı.
Rüzgar güneydan 4 kt
Sıcaklık 8°C
Nem 81%
Basınç 1013 hPa
Görüş mesafesi: 16.1 km
9500 ft yükseklikte çok bulutlu

METAR: KVLL 082316Z AUTO 19004KT 10SM OVC095 08/05 A2991 RMK AO2 T00770047

Saat: 18:34 (23:34 UTC)


TAF: eksik

4.000'den fazla havaalanı için hava durumu gözlemleri ve tahminleri (METAR ve TAF raporları).

Kullanılabilir istasyonlar harita üzerinde sarı ve kırmızı noktalarla gösterilir.

İstasyonun adını görmek için fareyi noktanın üzerinde gezdirin.

Sonrasında hava gözlem ve tahminlerini görmek için tıklayın.

Haritayı değiştirmek için: yaklaştırmak için siyah artı işaretli yeşil düğmeye ve uzaklaştırmak için de eksi işaretli düğmeye hızla tıklayın; bitişik haritalar için yeşil okları kullanın.


METAR-TAF: